FW3901 Weather Reports


Display with metric or nautical units.
time (UTC)temp
F
wind
direction
speed
MPH
gust
MPH
rain 1hr
in
rain 24hr
in
rain mn
in
humidity
%
barometer
mb
20190824044115 61 11 4.0 9.0 0.00 0.00 0.00 63 1021.7
20190824043112 61 10 5.0 8.0 0.00 0.00 0.00 63 1021.7
20190824042108 61 5 5.0 9.0 0.00 0.00 0.00 62 1021.7
20190824041105 61 36 3.0 9.0 0.00 0.00 0.00 62 1021.7
20190824040102 61 17 3.0 8.0 0.00 0.00 0.00 61 1021.8
20190824035058 61 13 3.0 8.0 0.00 0.00 0.00 61 1021.8
20190824034055 61 353 3.0 8.0 0.00 0.00 0.00 61 1021.8
20190824033052 61 55 1.0 5.0 0.00 0.00 0.00 61 1021.8
20190824032049 61 53 1.0 6.0 0.00 0.00 0.00 61 1021.8
20190824031045 61 31 1.0 4.0 0.00 0.00 0.00 60 1021.8
20190824030042 61 26 0.0 4.0 0.00 0.00 0.00 59 1021.8
20190824025039 61 352 1.0 5.0 0.00 0.00 0.00 59 1021.7
20190824024036 61 8 2.0 6.0 0.00 0.00 0.00 58 1021.7
20190824023033 61 18 3.0 6.0 0.00 0.00 0.00 59 1021.7
20190824022030 60 45 0.0 3.0 0.00 0.00 0.00 60 1021.8
20190824021027 61 225 0.0 1.0 0.00 0.00 0.00 56 1021.7
20190824020026 62 186 0.0 2.0 0.00 0.00 0.00 55 1021.9
20190824015020 62 341 1.0 6.0 0.00 0.00 0.00 54 1021.8
20190824014017 62 19 2.0 8.0 0.00 0.00 0.00 53 1021.8
20190824013114 62 45 3.0 8.0 0.00 0.00 0.00 53 1021.7
20190824012111 62 39 0.0 7.0 0.00 0.00 0.00 52 1021.9
20190824011107 63 90 1.0 5.0 0.00 0.00 0.00 51 1021.9
20190824010104 63 354 1.0 6.0 0.00 0.00 0.00 50 1021.9
20190824005101 63 21 3.0 8.0 0.00 0.00 0.00 51 1021.8
20190824004058 63 12 3.0 8.0 0.00 0.00 0.00 52 1021.9
20190824003054 63 29 4.0 7.0 0.00 0.00 0.00 54 1022.1
20190824002051 61 8 1.0 6.0 0.00 0.00 0.00 59 1022.2
20190824001048 60 0.0 0.0 0.00 0.00 0.00 61 1022.3
20190824000045 60 0.0 0.0 0.00 0.00 0.00 61 1022.2
20190823235041 60 0.0 0.0 0.00 0.00 0.00 60 1022.2
20190823234039 60 0.0 0.0 0.00 0.00 0.00 59 1022.4
20190823233035 60 0.0 0.0 0.00 0.00 0.00 59 1022.4
20190823232032 60 0.0 0.0 0.00 0.00 0.00 59 1022.5
20190823231029 60 0.0 0.0 0.00 0.00 0.00 58 1022.7
20190823230026 60 0.0 0.0 0.00 0.00 0.00 58 1022.8
20190823225023 60 0.0 0.0 0.00 0.00 0.00 55 1022.8
20190823224020 60 0.0 0.0 0.00 0.00 0.00 52 1022.8
20190823223016 61 45 0.0 1.0 0.00 0.00 0.00 49 1022.8
20190823222113 63 295 1.0 4.0 0.00 0.00 0.00 47 1022.6
20190823221110 61 0 2.0 5.0 0.00 0.00 0.00 51 1022.6
20190823220106 61 0 0.0 2.0 0.00 0.00 0.00 50 1022.7
20190823215108 62 0.0 2.0 0.00 0.00 0.00 46 1022.8
20190823214100 63 0.0 1.0 0.00 0.00 0.00 44 1022.8
20190823213056 64 28 0.0 3.0 0.00 0.00 0.00 42 1023.0
20190823212054 64 353 0.0 3.0 0.00 0.00 0.00 40 1023.0
20190823211050 65 34 2.0 4.0 0.00 0.00 0.00 38 1023.0
20190823210047 65 45 2.0 5.0 0.00 0.00 0.00 37 1023.2
20190823205044 66 30 3.0 6.0 0.00 0.00 0.00 37 1023.1
20190823204040 66 14 3.0 6.0 0.00 0.00 0.00 36 1023.1
20190823203037 66 37 3.0 7.0 0.00 0.00 0.00 36 1023.0
20190823202034 66 48 3.0 6.0 0.00 0.00 0.00 37 1023.2
20190823201033 66 33 1.0 4.0 0.00 0.00 0.00 38 1023.1
20190823200028 66 352 1.0 5.0 0.00 0.00 0.00 38 1023.1
20190823195025 66 32 2.0 5.0 0.00 0.00 0.00 39 1023.0
20190823194021 66 5 1.0 3.0 0.00 0.00 0.00 39 1023.2
20190823193018 66 34 2.0 4.0 0.00 0.00 0.00 39 1023.3
20190823192115 66 20 1.0 4.0 0.00 0.00 0.00 38 1023.3
20190823191111 67 37 1.0 3.0 0.00 0.00 0.00 37 1023.3
20190823190108 67 68 1.0 5.0 0.00 0.00 0.00 37 1023.4
20190823185105 67 50 1.0 4.0 0.00 0.00 0.00 36 1023.3
20190823184102 68 33 2.0 5.0 0.00 0.00 0.00 37 1023.2
20190823183059 68 80 2.0 6.0 0.00 0.00 0.00 36 1023.1
20190823182056 69 28 2.0 5.0 0.00 0.00 0.00 36 1023.0
20190823181052 70 72 2.0 6.0 0.00 0.00 0.00 33 1022.9
20190823180049 70 32 1.0 3.0 0.00 0.00 0.00 33 1022.9
20190823175046 71 38 1.0 5.0 0.00 0.00 0.00 31 1022.8
20190823174043 72 35 2.0 5.0 0.00 0.00 0.00 29 1022.7
20190823173039 73 28 2.0 6.0 0.00 0.00 0.00 26 1022.6
20190823172036 74 41 2.0 5.0 0.00 0.00 0.00 25 1022.6
20190823171033 74 21 2.0 6.0 0.00 0.00 0.00 25 1022.7
20190823170030 75 45 2.0 4.0 0.00 0.00 0.00 25 1022.6
20190823165027 75 13 2.0 7.0 0.00 0.00 0.00 24 1022.8
20190823164024 76 52 3.0 6.0 0.00 0.00 0.00 23 1022.8
20190823163020 76 49 3.0 9.0 0.00 0.00 0.00 22 1022.8
20190823162017 77 35 1.0 6.0 0.00 0.00 0.00 23 1022.9
20190823161114 77 33 3.0 6.0 0.00 0.00 0.00 21 1023.0
20190823160111 77 7 3.0 6.0 0.00 0.00 0.00 20 1023.0
20190823155108 77 47 2.0 6.0 0.00 0.00 0.00 21 1023.0
20190823154104 77 66 2.0 5.0 0.00 0.00 0.00 22 1023.1
20190823153101 78 53 1.0 4.0 0.00 0.00 0.00 22 1023.1
20190823152058 78 49 1.0 4.0 0.00 0.00 0.00 23 1023.2
20190823151055 78 59 2.0 6.0 0.00 0.00 0.00 23 1023.2
20190823150051 79 135 1.0 5.0 0.00 0.00 0.00 23 1023.3
20190823145048 79 43 1.0 5.0 0.00 0.00 0.00 24 1023.4
20190823144045 79 54 2.0 8.0 0.00 0.00 0.00 21 1023.4
20190823143042 79 139 1.0 5.0 0.00 0.00 0.00 23 1023.5
20190823142038 79 6 3.0 8.0 0.00 0.00 0.00 22 1023.6
20190823141035 79 27 2.0 6.0 0.00 0.00 0.00 23 1023.7
20190823140032 78 58 0.0 6.0 0.00 0.00 0.00 22 1023.7
20190823135029 78 34 1.0 5.0 0.00 0.00 0.00 22 1023.7
20190823134025 79 60 1.0 7.0 0.00 0.00 0.00 21 1023.8
20190823133022 78 123 1.0 4.0 0.00 0.00 0.00 23 1023.9
20190823132019 77 7 2.0 5.0 0.00 0.00 0.00 22 1023.9
20190823131016 78 70 3.0 6.0 0.00 0.00 0.00 24 1024.1
20190823130113 77 49 3.0 7.0 0.00 0.00 0.00 23 1024.0
20190823125110 76 354 3.0 6.0 0.00 0.00 0.00 23 1024.2
20190823124107 78 332 5.0 12.0 0.00 0.00 0.00 21 1024.3
20190823123103 79 300 0.0 4.0 0.00 0.00 0.00 21 1024.3
20190823122101 78 90 1.0 5.0 0.00 0.00 0.00 24 1024.3
20190823121057 78 357 2.0 6.0 0.00 0.00 0.00 22 1024.5
20190823120054 78 116 2.0 6.0 0.00 0.00 0.00 23 1024.6
20190823115051 76 111 1.0 5.0 0.00 0.00 0.00 28 1024.6
20190823114047 74 41 1.0 5.0 0.00 0.00 0.00 27 1024.6
20190823113044 76 9 1.0 5.0 0.00 0.00 0.00 26 1024.7
20190823112041 76 17 2.0 6.0 0.00 0.00 0.00 28 1024.8
20190823111038 76 10 1.0 6.0 0.00 0.00 0.00 27 1024.9
20190823110034 76 20 2.0 6.0 0.00 0.00 0.00 28 1024.9
20190823105031 75 340 2.0 9.0 0.00 0.00 0.00 28 1025.2
20190823104028 75 10 2.0 5.0 0.00 0.00 0.00 29 1025.2
20190823103026 74 7 4.0 9.0 0.00 0.00 0.00 29 1025.2
20190823102022 74 49 1.0 5.0 0.00 0.00 0.00 29 1025.3
20190823101018 74 31 1.0 5.0 0.00 0.00 0.00 31 1025.3
20190823100015 74 25 3.0 7.0 0.00 0.00 0.00 29 1025.4
20190823095112 75 98 1.0 5.0 0.00 0.00 0.00 32 1025.4
20190823094109 75 142 1.0 4.0 0.00 0.00 0.00 33 1025.6
20190823093105 73 27 1.0 5.0 0.00 0.00 0.00 35 1025.5
20190823092102 73 107 2.0 6.0 0.00 0.00 0.00 36 1025.7
20190823091059 72 69 1.0 5.0 0.00 0.00 0.00 39 1025.7
20190823090056 72 65 1.0 4.0 0.00 0.00 0.00 39 1025.7
20190823085053 71 34 1.0 5.0 0.00 0.00 0.00 42 1025.8
20190823084049 70 54 2.0 6.0 0.00 0.00 0.00 44 1025.8
20190823083046 70 49 1.0 4.0 0.00 0.00 0.00 51 1025.9
20190823082043 69 238 0.0 3.0 0.00 0.00 0.00 54 1025.8
20190823081039 68 144 0.0 3.0 0.00 0.00 0.00 58 1025.8
20190823080036 67 225 0.0 3.0 0.00 0.00 0.00 62 1026.0
20190823075033 66 180 0.0 3.0 0.00 0.00 0.00 64 1025.9
20190823074030 65 177 0.0 3.0 0.00 0.00 0.00 69 1025.8
20190823073027 63 160 1.0 3.0 0.00 0.00 0.00 75 1025.8
20190823072024 62 180 0.0 3.0 0.00 0.00 0.00 84 1025.8
20190823071021 60 0.0 2.0 0.00 0.00 0.00 96 1025.8
20190823070018 60 202 0.0 2.0 0.00 0.00 0.00 99 1025.8
20190823065114 59 180 0.0 1.0 0.00 0.00 0.00 99 1025.8
20190823064111 58 0.0 1.0 0.00 0.00 0.00 99 1025.8
20190823063108 57 0.0 0.0 0.00 0.00 0.00 99 1025.8
20190823062104 56 0.0 0.0 0.00 0.00 0.00 99 1025.8
20190823061101 54 0.0 0.0 0.00 0.00 0.00 99 1025.8
20190823060058 54 0.0 0.0 0.00 0.00 0.00 99 1025.8
20190823055055 53 0.0 1.0 0.00 0.00 0.00 99 1025.8
20190823054052 51 135 0.0 2.0 0.00 0.00 0.00 99 1025.7
20190823053048 50 0.0 0.0 0.00 0.00 0.00 99 1025.7
20190823052045 49 0.0 0.0 0.00 0.00 0.00 99 1025.6
20190823051042 48 0.0 0.0 0.00 0.00 0.00 99 1025.7
20190823050039 48 0.0 0.0 0.00 0.00 0.00 99 1025.7
20190823045036 48 0.0 0.0 0.00 0.00 0.00 99 1025.6